Terminal Aerodrome Forecast
Issued by NWS

Home | Current Version | Previous Version | Text Only | Print | Product List | Glossary On
Versions: 1 2 3 4 5 6 7 8 9 10 11 12 13 14 15 16 17 18 19 20 21
000
FTUS41 KPBZ 010500
TAFBVI
TAF
KBVI 010524Z 0106/0206 23006KT P6SM OVC040
     FM010900 VRB03KT 3SM -SN BR OVC025
     FM011100 09005KT 1SM -SN BR OVC006
     FM012100 10006KT 2SM -DZ BR BKN008 OVC080
     FM020300 13006KT 2SM -RA BR OVC005
      AMD NOT SKED=

USA.gov is the U.S. government's official web portal to all federal, state and local government web resources and services.